This is the latest recevied weather packets stored in our database for station/object YO6IKB-10. If no packets are shown the sender has not sent any weather packets the latest 10 day(s).
| Time | Temp. | Humidity | Pressure | Rain* | Wind** | Luminosity | Snow |
|---|---|---|---|---|---|---|---|
| 1777954643 | 8.89° C | 77% | 1013.5 hPa | 0 mm | - | - | - |
| 1777954343 | 8.89° C | 77% | 1013.5 hPa | 0 mm | - | - | - |
| 1777954042 | 8.33° C | 79% | 1013.4 hPa | 0 mm | - | - | - |
| 1777953742 | 7.78° C | 80% | 1013.3 hPa | 0 mm | - | - | - |
| 1777953442 | 7.22° C | 80% | 1013.3 hPa | 0 mm | - | - | - |
| 1777941130 | 8.89° C | 76% | 1012.7 hPa | 0 mm | - | - | - |
| 1777940229 | 8.89° C | 75% | 1012.5 hPa | 0 mm | - | - | - |
| 1777936926 | 9.44° C | 73% | 1012.5 hPa | 0 mm | - | - | - |
| 1777934223 | 10.56° C | 69% | 1012.5 hPa | 0 mm | - | - | - |
| 1777933923 | 10.56° C | 69% | 1012.5 hPa | 0 mm | - | - | - |
| 1777933022 | 11.11° C | 67% | 1012.5 hPa | 0 mm | - | - | - |
| 1777932421 | 11.67° C | 66% | 1012.5 hPa | 0 mm | - | - | - |
| 1777931820 | 11.67° C | 65% | 1012.5 hPa | 0 mm | - | - | - |
| 1777930920 | 11.67° C | 66% | 1012.4 hPa | 0 mm | - | - | - |
| 1777930619 | 12.22° C | 66% | 1012.4 hPa | 0 mm | - | - | - |
| 1777930319 | 12.22° C | 65% | 1012.4 hPa | 0 mm | - | - | - |
| 1777930019 | 12.22° C | 65% | 1012.5 hPa | 0 mm | - | - | - |
| 1777929418 | 12.22° C | 66% | 1012.4 hPa | 0 mm | - | - | - |
| 1777929118 | 12.22° C | 65% | 1012.4 hPa | 0 mm | - | - | - |
| 1777928818 | 12.22° C | 66% | 1012.4 hPa | 0 mm | - | - | - |
| 1777927016 | 12.78° C | 67% | 1012.3 hPa | 0 mm | - | - | - |
| 1777926716 | 12.78° C | 68% | 1012.3 hPa | 0 mm | - | - | - |
| 1777925815 | 12.78° C | 66% | 1012.3 hPa | 0 mm | - | - | - |
| 1777925214 | 13.33° C | 64% | 1012.2 hPa | 0 mm | - | - | - |
| 1777924914 | 13.33° C | 64% | 1012.2 hPa | 0 mm | - | - | - |
* Rain latest hour (hover to see other rain measurements)
** Current wind speed in m/s (hover to see current wind gust speed)